sensor_id;sensor_type;location;lat;lon;timestamp;P1;durP1;ratioP1;P2;durP2;ratioP2
70148;SDS011;57514;52.164;5.282;2022-08-05T00:02:25;9.45;;;3.15;;
70148;SDS011;57514;52.164;5.282;2022-08-05T00:04:53;7.75;;;3.15;;
70148;SDS011;57514;52.164;5.282;2022-08-05T00:07:21;10.18;;;3.65;;
70148;SDS011;57514;52.164;5.282;2022-08-05T00:10:09;9.18;;;3.67;;
70148;SDS011;57514;52.164;5.282;2022-08-05T00:12:36;8.30;;;3.42;;
70148;SDS011;57514;52.164;5.282;2022-08-05T00:15:22;10.48;;;3.60;;
70148;SDS011;57514;52.164;5.282;2022-08-05T00:18:09;11.35;;;3.22;;
70148;SDS011;57514;52.164;5.282;2022-08-05T00:20:47;7.53;;;3.20;;
70148;SDS011;57514;52.164;5.282;2022-08-05T00:23:15;9.68;;;3.47;;
70148;SDS011;57514;52.164;5.282;2022-08-05T00:26:02;7.13;;;3.40;;
70148;SDS011;57514;52.164;5.282;2022-08-05T00:28:29;8.50;;;3.33;;
70148;SDS011;57514;52.164;5.282;2022-08-05T00:30:58;9.68;;;3.55;;
70148;SDS011;57514;52.164;5.282;2022-08-05T00:33:30;8.18;;;3.28;;
70148;SDS011;57514;52.164;5.282;2022-08-05T00:36:17;10.32;;;3.08;;
70148;SDS011;57514;52.164;5.282;2022-08-05T00:39:04;8.95;;;3.30;;
70148;SDS011;57514;52.164;5.282;2022-08-05T00:41:39;6.32;;;3.10;;
70148;SDS011;57514;52.164;5.282;2022-08-05T00:44:20;6.07;;;2.90;;
70148;SDS011;57514;52.164;5.282;2022-08-05T00:46:55;8.05;;;3.22;;
70148;SDS011;57514;52.164;5.282;2022-08-05T00:49:29;12.18;;;3.83;;
70148;SDS011;57514;52.164;5.282;2022-08-05T00:51:58;8.43;;;3.40;;
70148;SDS011;57514;52.164;5.282;2022-08-05T00:54:25;7.50;;;3.85;;
70148;SDS011;57514;52.164;5.282;2022-08-05T00:59:22;9.27;;;3.28;;
70148;SDS011;57514;52.164;5.282;2022-08-05T01:01:49;9.18;;;3.83;;
70148;SDS011;57514;52.164;5.282;2022-08-05T01:04:17;7.82;;;3.33;;
70148;SDS011;57514;52.164;5.282;2022-08-05T01:06:52;7.63;;;3.50;;
70148;SDS011;57514;52.164;5.282;2022-08-05T01:09:20;11.38;;;3.65;;
70148;SDS011;57514;52.164;5.282;2022-08-05T01:11:48;8.82;;;3.88;;
70148;SDS011;57514;52.164;5.282;2022-08-05T01:17:10;9.20;;;4.18;;
70148;SDS011;57514;52.164;5.282;2022-08-05T01:19:44;10.85;;;3.83;;
70148;SDS011;57514;52.164;5.282;2022-08-05T01:22:30;8.98;;;3.40;;
70148;SDS011;57514;52.164;5.282;2022-08-05T01:30:38;8.90;;;3.70;;
70148;SDS011;57514;52.164;5.282;2022-08-05T01:33:20;9.25;;;3.78;;
70148;SDS011;57514;52.164;5.282;2022-08-05T01:35:51;7.82;;;3.67;;
70148;SDS011;57514;52.164;5.282;2022-08-05T01:38:22;8.43;;;3.50;;
70148;SDS011;57514;52.164;5.282;2022-08-05T01:40:58;8.68;;;3.63;;
70148;SDS011;57514;52.164;5.282;2022-08-05T01:43:26;10.98;;;3.80;;
70148;SDS011;57514;52.164;5.282;2022-08-05T01:45:55;9.52;;;3.55;;
70148;SDS011;57514;52.164;5.282;2022-08-05T01:48:33;9.77;;;3.17;;
70148;SDS011;57514;52.164;5.282;2022-08-05T01:51:02;11.88;;;3.92;;
70148;SDS011;57514;52.164;5.282;2022-08-05T01:53:37;8.27;;;3.20;;
70148;SDS011;57514;52.164;5.282;2022-08-05T01:56:23;10.68;;;3.58;;
70148;SDS011;57514;52.164;5.282;2022-08-05T01:59:15;7.85;;;3.05;;
70148;SDS011;57514;52.164;5.282;2022-08-05T02:01:44;7.75;;;3.03;;
70148;SDS011;57514;52.164;5.282;2022-08-05T02:04:14;13.70;;;3.75;;
70148;SDS011;57514;52.164;5.282;2022-08-05T02:06:43;6.88;;;3.40;;
70148;SDS011;57514;52.164;5.282;2022-08-05T02:09:10;6.55;;;3.40;;
70148;SDS011;57514;52.164;5.282;2022-08-05T02:11:43;9.25;;;3.33;;
70148;SDS011;57514;52.164;5.282;2022-08-05T02:14:23;7.50;;;3.20;;
70148;SDS011;57514;52.164;5.282;2022-08-05T02:17:00;9.23;;;2.67;;
70148;SDS011;57514;52.164;5.282;2022-08-05T02:19:33;7.60;;;2.67;;
70148;SDS011;57514;52.164;5.282;2022-08-05T02:22:17;8.43;;;2.97;;
70148;SDS011;57514;52.164;5.282;2022-08-05T02:24:54;9.15;;;3.70;;
70148;SDS011;57514;52.164;5.282;2022-08-05T02:27:29;9.48;;;3.25;;
70148;SDS011;57514;52.164;5.282;2022-08-05T02:30:19;6.88;;;2.97;;
70148;SDS011;57514;52.164;5.282;2022-08-05T02:32:48;9.02;;;3.65;;
70148;SDS011;57514;52.164;5.282;2022-08-05T02:35:21;6.80;;;3.08;;
70148;SDS011;57514;52.164;5.282;2022-08-05T02:37:58;9.20;;;3.10;;
70148;SDS011;57514;52.164;5.282;2022-08-05T02:40:27;9.70;;;3.38;;
70148;SDS011;57514;52.164;5.282;2022-08-05T02:42:55;7.95;;;2.97;;
70148;SDS011;57514;52.164;5.282;2022-08-05T02:45:24;9.13;;;3.50;;
70148;SDS011;57514;52.164;5.282;2022-08-05T02:48:12;9.68;;;3.22;;
70148;SDS011;57514;52.164;5.282;2022-08-05T02:50:41;9.40;;;3.45;;
70148;SDS011;57514;52.164;5.282;2022-08-05T02:53:13;9.05;;;3.35;;
70148;SDS011;57514;52.164;5.282;2022-08-05T02:55:45;8.00;;;3.03;;
70148;SDS011;57514;52.164;5.282;2022-08-05T02:58:24;8.13;;;2.92;;
70148;SDS011;57514;52.164;5.282;2022-08-05T03:00:54;8.93;;;3.15;;
70148;SDS011;57514;52.164;5.282;2022-08-05T03:03:21;12.20;;;3.50;;
70148;SDS011;57514;52.164;5.282;2022-08-05T03:05:49;9.00;;;3.22;;
70148;SDS011;57514;52.164;5.282;2022-08-05T03:08:37;8.80;;;3.22;;
70148;SDS011;57514;52.164;5.282;2022-08-05T03:11:21;8.50;;;3.08;;
70148;SDS011;57514;52.164;5.282;2022-08-05T03:14:09;12.43;;;4.13;;
70148;SDS011;57514;52.164;5.282;2022-08-05T03:16:39;8.25;;;3.10;;
70148;SDS011;57514;52.164;5.282;2022-08-05T03:19:06;14.57;;;4.10;;
70148;SDS011;57514;52.164;5.282;2022-08-05T03:21:53;11.57;;;3.25;;
70148;SDS011;57514;52.164;5.282;2022-08-05T03:24:20;10.27;;;3.47;;
70148;SDS011;57514;52.164;5.282;2022-08-05T03:26:56;10.05;;;3.20;;
70148;SDS011;57514;52.164;5.282;2022-08-05T03:29:24;7.45;;;2.75;;
70148;SDS011;57514;52.164;5.282;2022-08-05T03:32:11;8.02;;;3.42;;
70148;SDS011;57514;52.164;5.282;2022-08-05T03:34:40;7.75;;;3.35;;
70148;SDS011;57514;52.164;5.282;2022-08-05T03:37:16;12.43;;;3.40;;
70148;SDS011;57514;52.164;5.282;2022-08-05T03:39:55;10.68;;;3.60;;
70148;SDS011;57514;52.164;5.282;2022-08-05T03:42:25;8.93;;;3.88;;
70148;SDS011;57514;52.164;5.282;2022-08-05T03:44:54;10.52;;;3.33;;
70148;SDS011;57514;52.164;5.282;2022-08-05T03:47:22;11.52;;;3.60;;
70148;SDS011;57514;52.164;5.282;2022-08-05T03:49:50;9.02;;;3.40;;
70148;SDS011;57514;52.164;5.282;2022-08-05T03:52:25;9.05;;;3.10;;
70148;SDS011;57514;52.164;5.282;2022-08-05T03:55:22;7.25;;;3.72;;
70148;SDS011;57514;52.164;5.282;2022-08-05T04:00:41;7.03;;;3.33;;
70148;SDS011;57514;52.164;5.282;2022-08-05T04:03:17;8.43;;;3.33;;
70148;SDS011;57514;52.164;5.282;2022-08-05T04:05:54;9.30;;;3.60;;
70148;SDS011;57514;52.164;5.282;2022-08-05T04:08:25;12.45;;;3.42;;
70148;SDS011;57514;52.164;5.282;2022-08-05T04:11:02;9.63;;;3.58;;
70148;SDS011;57514;52.164;5.282;2022-08-05T04:13:30;9.52;;;3.50;;
70148;SDS011;57514;52.164;5.282;2022-08-05T04:16:16;9.40;;;3.33;;
70148;SDS011;57514;52.164;5.282;2022-08-05T04:18:53;8.70;;;3.00;;
70148;SDS011;57514;52.164;5.282;2022-08-05T04:21:25;9.50;;;3.33;;
70148;SDS011;57514;52.164;5.282;2022-08-05T04:24:11;10.60;;;3.58;;
70148;SDS011;57514;52.164;5.282;2022-08-05T04:26:48;12.35;;;3.40;;
70148;SDS011;57514;52.164;5.282;2022-08-05T04:29:15;9.43;;;3.55;;
70148;SDS011;57514;52.164;5.282;2022-08-05T04:31:42;8.93;;;3.30;;
70148;SDS011;57514;52.164;5.282;2022-08-05T04:34:08;8.63;;;3.40;;
70148;SDS011;57514;52.164;5.282;2022-08-05T04:36:56;8.32;;;3.22;;
70148;SDS011;57514;52.164;5.282;2022-08-05T04:39:23;8.25;;;3.35;;
70148;SDS011;57514;52.164;5.282;2022-08-05T04:41:53;9.82;;;3.35;;
70148;SDS011;57514;52.164;5.282;2022-08-05T04:44:20;8.68;;;3.00;;
70148;SDS011;57514;52.164;5.282;2022-08-05T04:46:56;9.23;;;3.20;;
70148;SDS011;57514;52.164;5.282;2022-08-05T04:49:34;7.65;;;3.05;;
70148;SDS011;57514;52.164;5.282;2022-08-05T04:52:21;7.05;;;2.90;;
70148;SDS011;57514;52.164;5.282;2022-08-05T04:54:52;7.90;;;3.03;;
70148;SDS011;57514;52.164;5.282;2022-08-05T04:57:22;5.75;;;2.70;;
70148;SDS011;57514;52.164;5.282;2022-08-05T04:59:54;5.35;;;2.90;;
70148;SDS011;57514;52.164;5.282;2022-08-05T05:02:24;6.68;;;3.00;;
70148;SDS011;57514;52.164;5.282;2022-08-05T05:05:08;6.97;;;2.70;;
70148;SDS011;57514;52.164;5.282;2022-08-05T05:07:54;5.68;;;2.80;;
70148;SDS011;57514;52.164;5.282;2022-08-05T05:10:31;5.30;;;2.88;;
70148;SDS011;57514;52.164;5.282;2022-08-05T05:13:02;6.22;;;3.53;;
70148;SDS011;57514;52.164;5.282;2022-08-05T05:15:30;7.20;;;2.95;;
70148;SDS011;57514;52.164;5.282;2022-08-05T05:18:16;6.97;;;2.95;;
70148;SDS011;57514;52.164;5.282;2022-08-05T05:20:59;8.00;;;3.42;;
70148;SDS011;57514;52.164;5.282;2022-08-05T05:23:28;5.25;;;2.80;;
70148;SDS011;57514;52.164;5.282;2022-08-05T05:26:15;5.10;;;2.60;;
70148;SDS011;57514;52.164;5.282;2022-08-05T05:28:43;8.43;;;2.90;;
70148;SDS011;57514;52.164;5.282;2022-08-05T05:31:10;6.30;;;2.88;;
70148;SDS011;57514;52.164;5.282;2022-08-05T05:33:38;8.73;;;2.72;;
70148;SDS011;57514;52.164;5.282;2022-08-05T05:36:25;6.63;;;3.03;;
70148;SDS011;57514;52.164;5.282;2022-08-05T05:38:55;8.13;;;3.13;;
70148;SDS011;57514;52.164;5.282;2022-08-05T05:41:22;8.00;;;2.95;;
70148;SDS011;57514;52.164;5.282;2022-08-05T05:43:49;5.13;;;3.22;;
70148;SDS011;57514;52.164;5.282;2022-08-05T05:46:25;5.80;;;2.60;;
70148;SDS011;57514;52.164;5.282;2022-08-05T05:48:51;7.22;;;2.65;;
70148;SDS011;57514;52.164;5.282;2022-08-05T05:51:22;6.50;;;2.65;;
70148;SDS011;57514;52.164;5.282;2022-08-05T05:53:53;6.78;;;2.75;;
70148;SDS011;57514;52.164;5.282;2022-08-05T05:56:28;4.65;;;2.85;;
70148;SDS011;57514;52.164;5.282;2022-08-05T05:58:58;4.90;;;2.67;;
70148;SDS011;57514;52.164;5.282;2022-08-05T06:01:29;8.13;;;2.25;;
70148;SDS011;57514;52.164;5.282;2022-08-05T06:04:07;5.43;;;2.20;;
70148;SDS011;57514;52.164;5.282;2022-08-05T06:06:41;5.75;;;2.40;;
70148;SDS011;57514;52.164;5.282;2022-08-05T06:09:14;6.07;;;2.33;;
70148;SDS011;57514;52.164;5.282;2022-08-05T06:11:42;7.28;;;2.70;;
70148;SDS011;57514;52.164;5.282;2022-08-05T06:14:27;5.60;;;2.50;;
70148;SDS011;57514;52.164;5.282;2022-08-05T06:16:54;7.03;;;2.38;;
70148;SDS011;57514;52.164;5.282;2022-08-05T06:19:23;6.00;;;2.05;;
70148;SDS011;57514;52.164;5.282;2022-08-05T06:22:00;4.90;;;2.25;;
70148;SDS011;57514;52.164;5.282;2022-08-05T06:24:28;5.63;;;2.28;;
70148;SDS011;57514;52.164;5.282;2022-08-05T06:26:56;5.72;;;2.33;;
70148;SDS011;57514;52.164;5.282;2022-08-05T06:29:23;7.03;;;2.28;;
70148;SDS011;57514;52.164;5.282;2022-08-05T06:32:11;3.80;;;2.10;;
70148;SDS011;57514;52.164;5.282;2022-08-05T06:34:54;5.38;;;2.30;;
70148;SDS011;57514;52.164;5.282;2022-08-05T06:37:26;5.03;;;2.55;;
70148;SDS011;57514;52.164;5.282;2022-08-05T06:40:14;5.60;;;2.10;;
70148;SDS011;57514;52.164;5.282;2022-08-05T06:42:49;7.57;;;2.58;;
70148;SDS011;57514;52.164;5.282;2022-08-05T06:45:18;4.80;;;2.28;;
70148;SDS011;57514;52.164;5.282;2022-08-05T06:48:06;7.15;;;2.00;;
70148;SDS011;57514;52.164;5.282;2022-08-05T06:50:53;6.97;;;2.10;;
70148;SDS011;57514;52.164;5.282;2022-08-05T06:53:20;5.40;;;2.15;;
70148;SDS011;57514;52.164;5.282;2022-08-05T06:55:54;6.45;;;2.70;;
70148;SDS011;57514;52.164;5.282;2022-08-05T06:58:22;5.13;;;2.40;;
70148;SDS011;57514;52.164;5.282;2022-08-05T07:01:00;6.32;;;2.17;;
70148;SDS011;57514;52.164;5.282;2022-08-05T07:03:28;3.42;;;1.60;;
70148;SDS011;57514;52.164;5.282;2022-08-05T07:05:58;3.55;;;1.05;;
70148;SDS011;57514;52.164;5.282;2022-08-05T07:08:40;3.70;;;1.70;;
70148;SDS011;57514;52.164;5.282;2022-08-05T07:11:13;3.28;;;1.15;;
70148;SDS011;57514;52.164;5.282;2022-08-05T07:13:41;3.75;;;1.40;;
70148;SDS011;57514;52.164;5.282;2022-08-05T07:16:27;2.53;;;1.20;;
70148;SDS011;57514;52.164;5.282;2022-08-05T07:22:20;2.05;;;1.33;;
70148;SDS011;57514;52.164;5.282;2022-08-05T07:25:01;2.97;;;1.20;;
70148;SDS011;57514;52.164;5.282;2022-08-05T07:27:49;1.75;;;1.20;;
70148;SDS011;57514;52.164;5.282;2022-08-05T07:30:30;3.20;;;1.45;;
70148;SDS011;57514;52.164;5.282;2022-08-05T07:33:03;1.83;;;1.20;;
70148;SDS011;57514;52.164;5.282;2022-08-05T07:35:35;2.58;;;1.40;;
70148;SDS011;57514;52.164;5.282;2022-08-05T07:38:26;2.40;;;1.10;;
70148;SDS011;57514;52.164;5.282;2022-08-05T07:41:10;1.83;;;1.15;;
70148;SDS011;57514;52.164;5.282;2022-08-05T07:44:03;2.58;;;1.30;;
70148;SDS011;57514;52.164;5.282;2022-08-05T07:46:44;2.72;;;1.15;;
70148;SDS011;57514;52.164;5.282;2022-08-05T07:51:40;2.78;;;1.30;;
70148;SDS011;57514;52.164;5.282;2022-08-05T07:54:20;2.90;;;1.08;;
70148;SDS011;57514;52.164;5.282;2022-08-05T07:57:02;3.00;;;1.30;;
70148;SDS011;57514;52.164;5.282;2022-08-05T07:59:49;2.28;;;1.23;;
70148;SDS011;57514;52.164;5.282;2022-08-05T08:02:17;1.73;;;1.00;;
70148;SDS011;57514;52.164;5.282;2022-08-05T08:04:55;2.45;;;1.23;;
70148;SDS011;57514;52.164;5.282;2022-08-05T08:07:23;2.55;;;0.80;;
70148;SDS011;57514;52.164;5.282;2022-08-05T08:09:53;3.10;;;1.20;;
70148;SDS011;57514;52.164;5.282;2022-08-05T08:12:22;2.47;;;1.30;;
70148;SDS011;57514;52.164;5.282;2022-08-05T08:15:05;2.67;;;1.10;;
70148;SDS011;57514;52.164;5.282;2022-08-05T08:17:41;3.17;;;1.15;;
70148;SDS011;57514;52.164;5.282;2022-08-05T08:20:19;2.30;;;1.13;;
70148;SDS011;57514;52.164;5.282;2022-08-05T08:23:10;2.55;;;1.30;;
70148;SDS011;57514;52.164;5.282;2022-08-05T08:25:57;2.67;;;1.30;;
70148;SDS011;57514;52.164;5.282;2022-08-05T08:28:28;3.90;;;1.45;;
70148;SDS011;57514;52.164;5.282;2022-08-05T08:31:07;3.05;;;0.90;;
70148;SDS011;57514;52.164;5.282;2022-08-05T08:33:40;3.10;;;1.02;;
70148;SDS011;57514;52.164;5.282;2022-08-05T08:36:08;2.33;;;0.93;;
70148;SDS011;57514;52.164;5.282;2022-08-05T08:38:56;3.22;;;1.00;;
70148;SDS011;57514;52.164;5.282;2022-08-05T08:41:24;1.50;;;0.95;;
70148;SDS011;57514;52.164;5.282;2022-08-05T08:44:13;2.13;;;1.10;;
70148;SDS011;57514;52.164;5.282;2022-08-05T08:47:02;1.02;;;0.63;;
70148;SDS011;57514;52.164;5.282;2022-08-05T08:49:50;3.65;;;1.00;;
70148;SDS011;57514;52.164;5.282;2022-08-05T08:52:38;1.98;;;1.00;;
70148;SDS011;57514;52.164;5.282;2022-08-05T08:55:17;2.38;;;0.98;;
70148;SDS011;57514;52.164;5.282;2022-08-05T08:58:04;1.83;;;1.00;;
70148;SDS011;57514;52.164;5.282;2022-08-05T09:00:33;2.22;;;1.10;;
70148;SDS011;57514;52.164;5.282;2022-08-05T09:03:01;2.17;;;1.08;;
70148;SDS011;57514;52.164;5.282;2022-08-05T09:05:31;2.75;;;1.20;;
70148;SDS011;57514;52.164;5.282;2022-08-05T09:08:19;2.13;;;1.00;;
70148;SDS011;57514;52.164;5.282;2022-08-05T09:10:52;3.38;;;1.50;;
70148;SDS011;57514;52.164;5.282;2022-08-05T09:13:19;3.22;;;1.10;;
70148;SDS011;57514;52.164;5.282;2022-08-05T09:15:49;4.10;;;1.50;;
70148;SDS011;57514;52.164;5.282;2022-08-05T09:18:16;2.17;;;1.00;;
70148;SDS011;57514;52.164;5.282;2022-08-05T09:20:43;3.17;;;1.02;;
70148;SDS011;57514;52.164;5.282;2022-08-05T09:23:15;2.13;;;1.00;;
70148;SDS011;57514;52.164;5.282;2022-08-05T09:25:50;2.50;;;1.05;;
70148;SDS011;57514;52.164;5.282;2022-08-05T09:28:32;3.90;;;0.93;;
70148;SDS011;57514;52.164;5.282;2022-08-05T09:31:07;1.17;;;0.85;;
70148;SDS011;57514;52.164;5.282;2022-08-05T09:33:59;1.60;;;1.10;;
70148;SDS011;57514;52.164;5.282;2022-08-05T09:39:20;2.63;;;0.90;;
70148;SDS011;57514;52.164;5.282;2022-08-05T09:42:06;4.50;;;1.05;;
70148;SDS011;57514;52.164;5.282;2022-08-05T09:44:39;4.70;;;1.15;;
70148;SDS011;57514;52.164;5.282;2022-08-05T09:47:18;2.38;;;1.00;;
70148;SDS011;57514;52.164;5.282;2022-08-05T09:49:51;3.53;;;1.13;;
70148;SDS011;57514;52.164;5.282;2022-08-05T09:54:58;1.80;;;0.82;;
70148;SDS011;57514;52.164;5.282;2022-08-05T09:57:50;2.45;;;1.05;;
70148;SDS011;57514;52.164;5.282;2022-08-05T10:00:23;3.25;;;0.98;;
70148;SDS011;57514;52.164;5.282;2022-08-05T10:02:52;1.25;;;0.95;;
70148;SDS011;57514;52.164;5.282;2022-08-05T10:05:24;3.05;;;1.05;;
70148;SDS011;57514;52.164;5.282;2022-08-05T10:07:57;6.57;;;1.20;;
70148;SDS011;57514;52.164;5.282;2022-08-05T10:10:53;2.47;;;1.20;;
70148;SDS011;57514;52.164;5.282;2022-08-05T10:13:25;1.92;;;1.10;;
70148;SDS011;57514;52.164;5.282;2022-08-05T10:19:08;2.75;;;1.02;;
70148;SDS011;57514;52.164;5.282;2022-08-05T10:21:37;5.20;;;1.00;;
70148;SDS011;57514;52.164;5.282;2022-08-05T10:26:42;2.95;;;0.95;;
70148;SDS011;57514;52.164;5.282;2022-08-05T10:29:18;2.95;;;1.10;;
70148;SDS011;57514;52.164;5.282;2022-08-05T10:32:06;1.65;;;0.90;;
70148;SDS011;57514;52.164;5.282;2022-08-05T10:34:54;0.98;;;0.70;;
70148;SDS011;57514;52.164;5.282;2022-08-05T10:37:27;1.42;;;0.85;;
70148;SDS011;57514;52.164;5.282;2022-08-05T10:43:11;2.05;;;1.00;;
70148;SDS011;57514;52.164;5.282;2022-08-05T10:46:05;2.17;;;0.73;;
70148;SDS011;57514;52.164;5.282;2022-08-05T10:48:34;2.65;;;0.80;;
70148;SDS011;57514;52.164;5.282;2022-08-05T10:51:21;1.67;;;0.95;;
70148;SDS011;57514;52.164;5.282;2022-08-05T10:53:58;2.00;;;0.90;;
70148;SDS011;57514;52.164;5.282;2022-08-05T10:56:36;2.00;;;0.98;;
70148;SDS011;57514;52.164;5.282;2022-08-05T10:59:10;1.65;;;0.90;;
70148;SDS011;57514;52.164;5.282;2022-08-05T11:02:07;2.28;;;0.88;;
70148;SDS011;57514;52.164;5.282;2022-08-05T11:04:55;1.55;;;0.98;;
70148;SDS011;57514;52.164;5.282;2022-08-05T11:07:22;1.92;;;0.98;;
70148;SDS011;57514;52.164;5.282;2022-08-05T11:10:19;1.45;;;0.77;;
70148;SDS011;57514;52.164;5.282;2022-08-05T11:12:55;3.40;;;0.80;;
70148;SDS011;57514;52.164;5.282;2022-08-05T11:15:26;2.50;;;1.00;;
70148;SDS011;57514;52.164;5.282;2022-08-05T11:18:27;4.00;;;1.50;;
70148;SDS011;57514;52.164;5.282;2022-08-05T11:20:59;1.33;;;0.95;;
70148;SDS011;57514;52.164;5.282;2022-08-05T11:23:33;2.03;;;0.85;;
70148;SDS011;57514;52.164;5.282;2022-08-05T11:26:38;1.95;;;0.90;;
70148;SDS011;57514;52.164;5.282;2022-08-05T11:29:14;2.60;;;1.00;;
70148;SDS011;57514;52.164;5.282;2022-08-05T11:32:23;1.77;;;0.98;;
70148;SDS011;57514;52.164;5.282;2022-08-05T11:34:52;3.03;;;1.33;;
70148;SDS011;57514;52.164;5.282;2022-08-05T11:43:59;2.30;;;0.98;;
70148;SDS011;57514;52.164;5.282;2022-08-05T11:46:46;2.50;;;0.82;;
70148;SDS011;57514;52.164;5.282;2022-08-05T11:49:37;1.83;;;0.52;;
70148;SDS011;57514;52.164;5.282;2022-08-05T11:52:08;2.30;;;0.80;;
70148;SDS011;57514;52.164;5.282;2022-08-05T11:54:37;2.63;;;0.95;;
70148;SDS011;57514;52.164;5.282;2022-08-05T11:57:06;3.03;;;1.10;;
70148;SDS011;57514;52.164;5.282;2022-08-05T11:59:52;2.15;;;1.00;;
70148;SDS011;57514;52.164;5.282;2022-08-05T12:02:23;3.88;;;0.90;;
70148;SDS011;57514;52.164;5.282;2022-08-05T12:04:58;3.08;;;1.00;;
70148;SDS011;57514;52.164;5.282;2022-08-05T12:07:27;5.95;;;1.25;;
70148;SDS011;57514;52.164;5.282;2022-08-05T12:10:19;3.17;;;1.02;;
70148;SDS011;57514;52.164;5.282;2022-08-05T12:12:50;3.17;;;1.20;;
70148;SDS011;57514;52.164;5.282;2022-08-05T12:15:25;4.00;;;0.98;;
70148;SDS011;57514;52.164;5.282;2022-08-05T12:18:05;7.43;;;1.48;;
70148;SDS011;57514;52.164;5.282;2022-08-05T12:20:36;2.90;;;1.10;;
70148;SDS011;57514;52.164;5.282;2022-08-05T12:23:10;3.63;;;1.02;;
70148;SDS011;57514;52.164;5.282;2022-08-05T12:25:50;3.25;;;1.30;;
70148;SDS011;57514;52.164;5.282;2022-08-05T12:28:31;2.83;;;1.23;;
70148;SDS011;57514;52.164;5.282;2022-08-05T12:30:59;4.15;;;1.05;;
70148;SDS011;57514;52.164;5.282;2022-08-05T12:33:27;3.65;;;0.90;;
70148;SDS011;57514;52.164;5.282;2022-08-05T12:36:04;4.05;;;1.45;;
70148;SDS011;57514;52.164;5.282;2022-08-05T12:38:37;2.67;;;1.13;;
70148;SDS011;57514;52.164;5.282;2022-08-05T12:41:15;1.63;;;0.80;;
70148;SDS011;57514;52.164;5.282;2022-08-05T12:46:26;1.85;;;1.00;;
70148;SDS011;57514;52.164;5.282;2022-08-05T12:49:12;4.22;;;1.00;;
70148;SDS011;57514;52.164;5.282;2022-08-05T12:51:50;4.55;;;0.90;;
70148;SDS011;57514;52.164;5.282;2022-08-05T12:54:38;5.78;;;1.50;;
70148;SDS011;57514;52.164;5.282;2022-08-05T12:57:07;3.75;;;1.42;;
70148;SDS011;57514;52.164;5.282;2022-08-05T12:59:51;3.28;;;0.95;;
70148;SDS011;57514;52.164;5.282;2022-08-05T13:02:39;3.85;;;1.23;;
70148;SDS011;57514;52.164;5.282;2022-08-05T13:05:06;5.13;;;1.20;;
70148;SDS011;57514;52.164;5.282;2022-08-05T13:07:39;3.53;;;1.20;;
70148;SDS011;57514;52.164;5.282;2022-08-05T13:10:25;4.13;;;1.55;;
70148;SDS011;57514;52.164;5.282;2022-08-05T13:12:56;3.33;;;1.20;;
70148;SDS011;57514;52.164;5.282;2022-08-05T13:15:30;2.45;;;1.25;;
70148;SDS011;57514;52.164;5.282;2022-08-05T13:18:07;4.10;;;1.40;;
70148;SDS011;57514;52.164;5.282;2022-08-05T13:20:34;3.58;;;1.50;;
70148;SDS011;57514;52.164;5.282;2022-08-05T13:23:05;4.05;;;1.65;;
70148;SDS011;57514;52.164;5.282;2022-08-05T13:25:32;2.22;;;1.20;;
70148;SDS011;57514;52.164;5.282;2022-08-05T13:30:47;4.10;;;1.10;;
70148;SDS011;57514;52.164;5.282;2022-08-05T13:33:18;4.38;;;1.15;;
70148;SDS011;57514;52.164;5.282;2022-08-05T13:36:05;4.43;;;1.30;;
70148;SDS011;57514;52.164;5.282;2022-08-05T13:41:08;2.45;;;0.73;;
70148;SDS011;57514;52.164;5.282;2022-08-05T13:43:37;1.02;;;0.80;;
70148;SDS011;57514;52.164;5.282;2022-08-05T13:46:09;3.42;;;0.73;;
70148;SDS011;57514;52.164;5.282;2022-08-05T13:48:37;2.88;;;1.20;;
70148;SDS011;57514;52.164;5.282;2022-08-05T13:51:25;2.58;;;0.82;;
70148;SDS011;57514;52.164;5.282;2022-08-05T13:54:01;1.10;;;0.80;;
70148;SDS011;57514;52.164;5.282;2022-08-05T13:56:37;1.88;;;0.63;;
70148;SDS011;57514;52.164;5.282;2022-08-05T13:59:10;1.75;;;0.68;;
70148;SDS011;57514;52.164;5.282;2022-08-05T14:01:48;5.00;;;0.63;;
70148;SDS011;57514;52.164;5.282;2022-08-05T14:04:25;1.15;;;0.50;;
70148;SDS011;57514;52.164;5.282;2022-08-05T14:07:16;2.70;;;0.88;;
70148;SDS011;57514;52.164;5.282;2022-08-05T14:10:04;3.78;;;0.80;;
70148;SDS011;57514;52.164;5.282;2022-08-05T14:12:34;3.55;;;0.98;;
70148;SDS011;57514;52.164;5.282;2022-08-05T14:15:01;3.38;;;0.80;;
70148;SDS011;57514;52.164;5.282;2022-08-05T14:17:48;3.10;;;0.75;;
70148;SDS011;57514;52.164;5.282;2022-08-05T14:20:20;2.05;;;0.77;;
70148;SDS011;57514;52.164;5.282;2022-08-05T14:22:52;2.72;;;1.05;;
70148;SDS011;57514;52.164;5.282;2022-08-05T14:25:21;14.60;;;3.83;;
70148;SDS011;57514;52.164;5.282;2022-08-05T14:27:53;4.07;;;1.00;;
70148;SDS011;57514;52.164;5.282;2022-08-05T14:30:20;3.53;;;1.02;;
70148;SDS011;57514;52.164;5.282;2022-08-05T14:32:51;13.57;;;5.80;;
70148;SDS011;57514;52.164;5.282;2022-08-05T14:35:18;5.10;;;2.60;;
70148;SDS011;57514;52.164;5.282;2022-08-05T14:40:20;2.42;;;1.08;;
70148;SDS011;57514;52.164;5.282;2022-08-05T14:42:49;4.28;;;1.00;;
70148;SDS011;57514;52.164;5.282;2022-08-05T14:45:17;6.22;;;1.40;;
70148;SDS011;57514;52.164;5.282;2022-08-05T14:47:44;3.28;;;1.20;;
70148;SDS011;57514;52.164;5.282;2022-08-05T14:50:31;4.35;;;1.30;;
70148;SDS011;57514;52.164;5.282;2022-08-05T14:53:05;3.75;;;1.50;;
70148;SDS011;57514;52.164;5.282;2022-08-05T14:55:32;2.58;;;0.90;;
70148;SDS011;57514;52.164;5.282;2022-08-05T14:58:05;3.25;;;1.35;;
70148;SDS011;57514;52.164;5.282;2022-08-05T15:00:38;4.22;;;1.35;;
70148;SDS011;57514;52.164;5.282;2022-08-05T15:03:25;5.63;;;1.10;;
70148;SDS011;57514;52.164;5.282;2022-08-05T15:05:59;3.58;;;1.23;;
70148;SDS011;57514;52.164;5.282;2022-08-05T15:08:33;5.50;;;1.45;;
70148;SDS011;57514;52.164;5.282;2022-08-05T15:11:21;1.27;;;1.10;;
70148;SDS011;57514;52.164;5.282;2022-08-05T15:16:35;7.53;;;1.25;;
70148;SDS011;57514;52.164;5.282;2022-08-05T15:19:07;2.80;;;1.27;;
70148;SDS011;57514;52.164;5.282;2022-08-05T15:21:48;2.70;;;1.20;;
70148;SDS011;57514;52.164;5.282;2022-08-05T15:24:17;3.95;;;1.60;;
70148;SDS011;57514;52.164;5.282;2022-08-05T15:26:45;3.70;;;1.98;;
70148;SDS011;57514;52.164;5.282;2022-08-05T15:29:13;2.33;;;1.48;;
70148;SDS011;57514;52.164;5.282;2022-08-05T15:31:40;4.05;;;1.55;;
70148;SDS011;57514;52.164;5.282;2022-08-05T15:34:09;3.13;;;1.23;;
70148;SDS011;57514;52.164;5.282;2022-08-05T15:36:56;3.67;;;1.13;;
70148;SDS011;57514;52.164;5.282;2022-08-05T15:39:30;2.55;;;1.30;;
70148;SDS011;57514;52.164;5.282;2022-08-05T15:45:05;4.00;;;1.30;;
70148;SDS011;57514;52.164;5.282;2022-08-05T15:47:35;2.17;;;1.00;;
70148;SDS011;57514;52.164;5.282;2022-08-05T15:50:06;3.53;;;1.20;;
70148;SDS011;57514;52.164;5.282;2022-08-05T15:52:40;3.20;;;1.10;;
70148;SDS011;57514;52.164;5.282;2022-08-05T15:55:19;2.95;;;1.63;;
70148;SDS011;57514;52.164;5.282;2022-08-05T15:58:06;3.05;;;1.20;;
70148;SDS011;57514;52.164;5.282;2022-08-05T16:00:33;3.67;;;1.10;;
70148;SDS011;57514;52.164;5.282;2022-08-05T16:03:20;3.50;;;1.20;;
70148;SDS011;57514;52.164;5.282;2022-08-05T16:05:48;5.82;;;1.80;;
70148;SDS011;57514;52.164;5.282;2022-08-05T16:08:21;5.68;;;1.50;;
70148;SDS011;57514;52.164;5.282;2022-08-05T16:10:57;3.30;;;1.20;;
70148;SDS011;57514;52.164;5.282;2022-08-05T16:13:24;3.85;;;1.52;;
70148;SDS011;57514;52.164;5.282;2022-08-05T16:16:00;2.42;;;1.58;;
70148;SDS011;57514;52.164;5.282;2022-08-05T16:18:28;6.07;;;1.48;;
70148;SDS011;57514;52.164;5.282;2022-08-05T16:20:58;5.22;;;1.48;;
70148;SDS011;57514;52.164;5.282;2022-08-05T16:23:30;5.10;;;1.65;;
70148;SDS011;57514;52.164;5.282;2022-08-05T16:26:18;3.95;;;1.40;;
70148;SDS011;57514;52.164;5.282;2022-08-05T16:28:52;2.95;;;1.10;;
70148;SDS011;57514;52.164;5.282;2022-08-05T16:31:19;2.88;;;1.23;;
70148;SDS011;57514;52.164;5.282;2022-08-05T16:33:47;5.45;;;1.65;;